createdAt,value
2023-09-07T00:02:15.769Z,102123.41
2023-09-07T00:04:44.322Z,102122.22
2023-09-07T00:07:12.525Z,102127.81
2023-09-07T00:09:40.562Z,102127.50
2023-09-07T00:12:08.722Z,102131.03
2023-09-07T00:14:36.680Z,102135.59
2023-09-07T00:17:06.842Z,102133.41
2023-09-07T00:19:37.984Z,102137.63
2023-09-07T00:22:06.559Z,102137.59
2023-09-07T00:24:34.608Z,102138.00
2023-09-07T00:27:05.453Z,102131.16
2023-09-07T00:29:33.740Z,102136.41
2023-09-07T00:32:01.663Z,102129.75
2023-09-07T00:34:31.200Z,102131.44
2023-09-07T00:36:59.616Z,102128.56
2023-09-07T00:39:27.561Z,102131.78
2023-09-07T00:41:56.390Z,102132.13
2023-09-07T00:44:24.454Z,102130.41
2023-09-07T00:46:52.734Z,102137.31
2023-09-07T00:49:20.932Z,102135.50
2023-09-07T00:51:50.504Z,102136.50
2023-09-07T00:54:18.715Z,102131.59
2023-09-07T00:56:47.305Z,102132.44
2023-09-07T00:59:15.575Z,102128.25
2023-09-07T01:01:44.442Z,102127.91
2023-09-07T01:04:12.978Z,102128.47
2023-09-07T01:06:46.887Z,102119.41
2023-09-07T01:09:22.031Z,102116.84
2023-09-07T01:11:51.216Z,102115.13
2023-09-07T01:14:19.249Z,102125.03
2023-09-07T01:16:47.454Z,102119.91
2023-09-07T01:19:15.579Z,102128.94
2023-09-07T01:25:58.034Z,102116.66
2023-09-07T01:28:26.313Z,102119.72
2023-09-07T01:30:54.583Z,102115.25
2023-09-07T01:33:22.793Z,102121.25
2023-09-07T01:35:51.166Z,102131.34
2023-09-07T01:38:19.245Z,102116.19
2023-09-07T01:40:47.272Z,102124.44
2023-09-07T01:43:16.648Z,102126.47
2023-09-07T01:45:44.678Z,102119.06
2023-09-07T01:48:14.419Z,102126.91
2023-09-07T01:50:42.704Z,102128.34
2023-09-07T01:53:10.584Z,102127.03
2023-09-07T01:55:38.728Z,102123.75
2023-09-07T01:58:06.754Z,102127.28
2023-09-07T02:00:40.097Z,102126.56
2023-09-07T02:03:08.802Z,102134.34
2023-09-07T02:05:36.737Z,102132.56
2023-09-07T02:08:05.230Z,102125.28
2023-09-07T02:10:33.248Z,102136.84
2023-09-07T02:13:01.250Z,102132.81
2023-09-07T02:15:29.150Z,102128.78
2023-09-07T02:17:58.701Z,102128.91
2023-09-07T02:20:26.875Z,102125.84
2023-09-07T02:22:54.782Z,102125.13
2023-09-07T02:25:23.338Z,102127.28
2023-09-07T02:27:51.356Z,102128.25
2023-09-07T02:30:19.651Z,102121.97
2023-09-07T02:32:47.638Z,102130.19
2023-09-07T02:35:17.119Z,102121.25
2023-09-07T02:37:45.187Z,102122.75
2023-09-07T02:40:13.729Z,102121.41
2023-09-07T02:42:41.658Z,102115.94
2023-09-07T02:45:11.839Z,102117.97
2023-09-07T02:47:40.044Z,102127.00
2023-09-07T02:50:09.300Z,102126.19
2023-09-07T02:52:38.842Z,102126.84
2023-09-07T02:55:08.084Z,102135.72
2023-09-07T02:57:37.383Z,102121.41
2023-09-07T03:00:10.578Z,102132.59
2023-09-07T03:02:39.508Z,102126.84
2023-09-07T03:05:08.000Z,102126.13
2023-09-07T03:07:36.237Z,102126.53
2023-09-07T03:10:05.830Z,102134.28
2023-09-07T03:12:34.511Z,102132.84
2023-09-07T03:15:04.687Z,102132.38
2023-09-07T03:17:33.291Z,102132.00
2023-09-07T03:20:01.302Z,102129.25
2023-09-07T03:22:30.659Z,102134.28
2023-09-07T03:24:59.018Z,102128.56
2023-09-07T03:27:28.345Z,102130.13
2023-09-07T03:29:56.270Z,102134.72
2023-09-07T03:32:24.601Z,102133.38
2023-09-07T03:34:52.630Z,102128.25
2023-09-07T03:37:20.511Z,102125.69
2023-09-07T03:39:49.394Z,102135.50
2023-09-07T03:42:17.310Z,102127.41
2023-09-07T03:44:46.711Z,102131.28
2023-09-07T03:47:16.616Z,102130.91
2023-09-07T03:49:45.403Z,102133.78
2023-09-07T03:52:14.012Z,102138.03
2023-09-07T03:54:41.934Z,102137.34
2023-09-07T03:57:09.868Z,102129.47
2023-09-07T03:59:37.793Z,102135.94
2023-09-07T04:02:07.302Z,102137.06
2023-09-07T04:04:35.638Z,102140.25
2023-09-07T04:07:04.443Z,102136.00
2023-09-07T04:09:32.927Z,102140.84
2023-09-07T04:12:01.839Z,102141.56
2023-09-07T04:14:31.401Z,102138.59
2023-09-07T04:16:59.520Z,102140.44
2023-09-07T04:19:28.988Z,102135.44
2023-09-07T04:21:57.055Z,102138.56
2023-09-07T04:24:25.336Z,102142.16
2023-09-07T04:26:53.375Z,102145.59
2023-09-07T04:29:21.358Z,102142.50
2023-09-07T04:31:50.545Z,102145.75
2023-09-07T04:34:18.772Z,102140.81
2023-09-07T04:36:48.208Z,102149.31
2023-09-07T04:39:16.333Z,102150.84
2023-09-07T04:41:44.422Z,102159.50
2023-09-07T04:44:12.755Z,102153.22
2023-09-07T04:46:40.966Z,102151.63
2023-09-07T04:49:09.493Z,102155.84
2023-09-07T04:51:37.454Z,102148.06
2023-09-07T04:54:07.165Z,102162.66
2023-09-07T04:56:35.153Z,102156.47
2023-09-07T04:59:03.392Z,102156.47
2023-09-07T05:01:32.982Z,102152.34
2023-09-07T05:04:03.077Z,102153.22
2023-09-07T05:06:31.456Z,102160.97
2023-09-07T05:08:59.499Z,102165.94
2023-09-07T05:11:28.777Z,102164.22
2023-09-07T05:13:56.801Z,102169.22
2023-09-07T05:16:25.087Z,102164.22
2023-09-07T05:18:53.135Z,102166.31
2023-09-07T05:21:21.110Z,102162.59
2023-09-07T05:23:49.376Z,102159.78
2023-09-07T05:26:22.993Z,102164.63
2023-09-07T05:28:52.439Z,102157.31
2023-09-07T05:31:20.502Z,102165.81
2023-09-07T05:33:48.833Z,102165.66
2023-09-07T05:36:16.866Z,102164.53
2023-09-07T05:38:44.773Z,102163.84
2023-09-07T05:41:12.951Z,102165.41
2023-09-07T05:43:40.961Z,102174.88
2023-09-07T05:46:10.866Z,102164.94
2023-09-07T05:48:39.052Z,102169.53
2023-09-07T05:51:07.149Z,102174.94
2023-09-07T05:53:35.074Z,102175.75
2023-09-07T05:56:03.511Z,102168.59
2023-09-07T05:58:31.727Z,102170.81
2023-09-07T06:01:00.214Z,102169.00
2023-09-07T06:03:30.121Z,102174.19
2023-09-07T06:05:58.644Z,102178.41
2023-09-07T06:08:26.577Z,102177.38
2023-09-07T06:10:55.805Z,102164.72
2023-09-07T06:13:23.750Z,102167.72
2023-09-07T06:15:52.057Z,102175.78
2023-09-07T06:18:20.514Z,102172.38
2023-09-07T06:20:49.953Z,102166.97
2023-09-07T06:23:18.104Z,102171.03
2023-09-07T06:25:46.122Z,102175.91
2023-09-07T06:28:15.124Z,102179.97
2023-09-07T06:30:43.368Z,102174.91
2023-09-07T06:33:11.512Z,102171.31
2023-09-07T06:35:39.802Z,102179.78
2023-09-07T06:38:09.404Z,102173.34
2023-09-07T06:40:37.471Z,102183.72
2023-09-07T06:43:06.478Z,102177.25
2023-09-07T06:45:37.135Z,102166.16
2023-09-07T06:48:06.476Z,102175.94
2023-09-07T06:50:34.726Z,102170.69
2023-09-07T06:53:03.935Z,102178.88
2023-09-07T06:55:33.579Z,102186.44
2023-09-07T06:58:02.516Z,102172.72
2023-09-07T07:00:31.127Z,102176.00
2023-09-07T07:02:59.845Z,102175.16
2023-09-07T07:05:29.644Z,102176.97
2023-09-07T07:07:57.799Z,102181.25
2023-09-07T07:10:26.271Z,102179.03
2023-09-07T07:12:55.713Z,102174.69
2023-09-07T07:15:23.648Z,102180.41
2023-09-07T07:17:51.759Z,102176.97
2023-09-07T07:20:20.214Z,102174.06
2023-09-07T07:22:48.132Z,102187.38
2023-09-07T07:25:18.425Z,102183.72
2023-09-07T07:27:47.096Z,102187.22
2023-09-07T07:30:16.457Z,102181.59
2023-09-07T07:32:44.480Z,102187.03
2023-09-07T07:35:12.612Z,102185.84
2023-09-07T07:37:40.630Z,102182.94
2023-09-07T07:40:09.799Z,102191.47
2023-09-07T07:42:38.204Z,102187.31
2023-09-07T07:45:07.342Z,102188.41
2023-09-07T07:47:36.596Z,102187.19
2023-09-07T07:50:05.340Z,102186.44
2023-09-07T07:52:33.660Z,102182.72
2023-09-07T07:55:01.578Z,102184.25
2023-09-07T07:57:29.491Z,102181.47
2023-09-07T07:59:58.213Z,102186.34
2023-09-07T08:02:27.530Z,102190.16
2023-09-07T08:04:56.902Z,102180.06
2023-09-07T08:07:24.976Z,102182.78
2023-09-07T08:09:53.136Z,102180.00
2023-09-07T08:12:21.232Z,102181.47
2023-09-07T08:14:49.318Z,102168.66
2023-09-07T08:17:17.507Z,102177.56
2023-09-07T08:19:45.732Z,102173.56
2023-09-07T08:22:15.051Z,102176.47
2023-09-07T08:24:43.619Z,102183.97
2023-09-07T08:27:12.532Z,102178.84
2023-09-07T08:29:41.440Z,102176.56
2023-09-07T08:32:12.887Z,102186.16
2023-09-07T08:34:41.843Z,102180.88
2023-09-07T08:37:09.853Z,102169.41
2023-09-07T08:39:40.475Z,102166.84
2023-09-07T08:42:09.070Z,102165.88
2023-09-07T08:44:39.574Z,102165.88
2023-09-07T08:47:08.310Z,102165.25
2023-09-07T08:49:37.713Z,102160.84
2023-09-07T08:52:07.832Z,102168.16
2023-09-07T08:54:36.875Z,102157.53
2023-09-07T08:57:07.459Z,102164.63
2023-09-07T08:59:35.363Z,102172.38
2023-09-07T09:02:05.492Z,102157.41
2023-09-07T09:04:35.161Z,102160.69
2023-09-07T09:07:04.980Z,102161.13
2023-09-07T09:09:33.356Z,102163.81
2023-09-07T09:12:10.603Z,102159.72
2023-09-07T09:14:38.536Z,102164.28
2023-09-07T09:17:06.437Z,102154.78
2023-09-07T09:19:34.785Z,102155.63
2023-09-07T09:22:04.894Z,102149.81
2023-09-07T09:24:35.733Z,102157.09
2023-09-07T09:27:03.813Z,102152.66
2023-09-07T09:29:35.177Z,102147.72
2023-09-07T09:32:05.735Z,102142.19
2023-09-07T09:34:35.953Z,102149.09
2023-09-07T09:37:04.723Z,102143.47
2023-09-07T09:39:32.709Z,102139.13
2023-09-07T09:42:01.204Z,102132.41
2023-09-07T09:44:31.294Z,102135.84
2023-09-07T09:47:01.716Z,102128.59
2023-09-07T09:49:31.309Z,102133.28
2023-09-07T09:52:00.673Z,102131.38
2023-09-07T09:54:29.962Z,102124.84
2023-09-07T09:56:57.963Z,102125.63
2023-09-07T09:59:25.888Z,102125.25
2023-09-07T10:01:56.188Z,102115.22
2023-09-07T10:04:26.964Z,102124.28
2023-09-07T10:07:00.543Z,102120.38
2023-09-07T10:09:31.710Z,102109.06
2023-09-07T10:12:01.099Z,102112.13
2023-09-07T10:14:40.458Z,102106.59
2023-09-07T10:17:10.672Z,102101.13
2023-09-07T10:19:45.678Z,102101.94
2023-09-07T10:22:23.481Z,102102.00
2023-09-07T10:24:59.769Z,102096.19
2023-09-07T10:27:27.694Z,102091.75
2023-09-07T10:29:57.257Z,102091.47
2023-09-07T10:32:25.374Z,102099.47
2023-09-07T10:34:54.735Z,102092.06
2023-09-07T10:37:31.068Z,102090.72
2023-09-07T10:39:59.108Z,102091.38
2023-09-07T10:42:27.786Z,102095.00
2023-09-07T10:44:56.433Z,102084.31
2023-09-07T10:47:24.356Z,102089.81
2023-09-07T10:49:52.237Z,102077.25
2023-09-07T10:52:21.612Z,102085.06
2023-09-07T10:54:58.852Z,102085.38
2023-09-07T10:57:27.902Z,102084.88
2023-09-07T10:59:56.338Z,102079.31
2023-09-07T11:02:27.290Z,102080.41
2023-09-07T11:04:55.467Z,102078.59
2023-09-07T11:07:24.789Z,102079.44
2023-09-07T11:09:54.361Z,102076.69
2023-09-07T11:12:23.236Z,102078.66
2023-09-07T11:14:51.356Z,102069.28
2023-09-07T11:17:19.360Z,102072.03
2023-09-07T11:19:53.445Z,102066.06
2023-09-07T11:22:21.369Z,102058.97
2023-09-07T11:24:50.624Z,102057.75
2023-09-07T11:27:20.006Z,102058.81
2023-09-07T11:29:53.712Z,102051.63
2023-09-07T11:32:23.736Z,102049.56
2023-09-07T11:34:52.429Z,102049.25
2023-09-07T11:37:24.975Z,102055.47
2023-09-07T11:39:54.481Z,102051.41
2023-09-07T11:42:22.467Z,102042.03
2023-09-07T11:44:50.372Z,102048.03
2023-09-07T11:47:18.407Z,102045.22
2023-09-07T11:49:46.525Z,102057.97
2023-09-07T11:52:14.577Z,102039.78
2023-09-07T11:54:42.487Z,102042.81
2023-09-07T11:57:11.805Z,102041.78
2023-09-07T11:59:56.132Z,102045.97
2023-09-07T12:02:27.984Z,102045.50
2023-09-07T12:04:56.618Z,102042.63
2023-09-07T12:07:24.743Z,102044.03
2023-09-07T12:09:52.846Z,102037.13
2023-09-07T12:12:22.256Z,102032.34
2023-09-07T12:14:50.182Z,102044.66
2023-09-07T12:17:18.490Z,102032.97
2023-09-07T12:19:47.063Z,102035.63
2023-09-07T12:22:15.124Z,102037.44
2023-09-07T12:24:43.004Z,102053.72
2023-09-07T12:27:10.921Z,102056.25
2023-09-07T12:29:40.252Z,102044.22
2023-09-07T12:32:08.226Z,102053.06
2023-09-07T12:34:36.253Z,102046.94
2023-09-07T12:37:05.565Z,102045.13
2023-09-07T12:39:33.782Z,102049.84
2023-09-07T12:42:02.652Z,102052.06
2023-09-07T12:44:30.537Z,102039.69
2023-09-07T12:46:59.843Z,102040.63
2023-09-07T12:49:27.713Z,102031.94
2023-09-07T12:51:55.600Z,102034.81
2023-09-07T12:54:23.609Z,102030.38
2023-09-07T12:56:51.596Z,102029.91
2023-09-07T12:59:19.488Z,102036.75
2023-09-07T13:01:48.541Z,102031.16
2023-09-07T13:04:17.794Z,102017.94
2023-09-07T13:06:45.677Z,102013.50
2023-09-07T13:09:13.645Z,102019.88
2023-09-07T13:11:41.571Z,102015.97
2023-09-07T13:14:12.124Z,102017.91
2023-09-07T13:16:40.558Z,102012.94
2023-09-07T13:19:08.702Z,102006.91
2023-09-07T13:21:38.005Z,102017.28
2023-09-07T13:24:06.393Z,102010.16
2023-09-07T13:26:34.810Z,102014.47
2023-09-07T13:29:02.722Z,102012.22
2023-09-07T13:31:30.715Z,101995.22
2023-09-07T13:33:58.652Z,101990.66
2023-09-07T13:36:26.610Z,101999.03
2023-09-07T13:38:57.944Z,101997.50
2023-09-07T13:41:25.856Z,101988.75
2023-09-07T13:43:54.951Z,101995.91
2023-09-07T13:46:24.422Z,101982.75
2023-09-07T13:48:52.421Z,101985.56
2023-09-07T13:51:20.332Z,101979.09
2023-09-07T13:53:48.260Z,101980.38
2023-09-07T13:56:17.629Z,101983.78
2023-09-07T13:58:45.529Z,101985.66
2023-09-07T14:01:13.467Z,101969.72
2023-09-07T14:03:41.666Z,101973.16
2023-09-07T14:06:09.490Z,101980.44
2023-09-07T14:08:37.374Z,101977.59
2023-09-07T14:11:05.369Z,101975.97
2023-09-07T14:13:36.306Z,101965.69
2023-09-07T14:16:04.332Z,101965.00
2023-09-07T14:18:32.319Z,101970.84
2023-09-07T14:21:02.102Z,101971.09
2023-09-07T14:23:30.338Z,101966.16
2023-09-07T14:25:59.977Z,101978.13
2023-09-07T14:28:28.095Z,101975.50
2023-09-07T14:30:59.978Z,101972.59
2023-09-07T14:33:28.015Z,101971.75
2023-09-07T14:35:56.129Z,101972.69
2023-09-07T14:38:24.916Z,101976.34
2023-09-07T14:40:55.785Z,101977.56
2023-09-07T14:43:24.005Z,101978.06
2023-09-07T14:45:51.953Z,101967.75
2023-09-07T14:48:21.262Z,101967.69
2023-09-07T14:50:49.249Z,101966.25
2023-09-07T14:53:18.272Z,101968.28
2023-09-07T14:55:46.905Z,101965.03
2023-09-07T14:58:15.302Z,101973.38
2023-09-07T15:00:43.238Z,101961.88
2023-09-07T15:03:11.283Z,101968.88
2023-09-07T15:05:42.101Z,101962.22
2023-09-07T15:08:10.984Z,101959.63
2023-09-07T15:10:39.031Z,101963.59
2023-09-07T15:13:08.142Z,101962.78
2023-09-07T15:15:38.364Z,101952.38
2023-09-07T15:18:06.895Z,101953.34
2023-09-07T15:20:35.258Z,101949.75
2023-09-07T15:23:05.500Z,101950.09
2023-09-07T15:25:33.680Z,101948.47
2023-09-07T15:28:01.636Z,101943.84
2023-09-07T15:30:29.641Z,101947.34
2023-09-07T15:32:57.680Z,101950.81
2023-09-07T15:35:27.077Z,101939.72
2023-09-07T15:37:55.777Z,101936.28
2023-09-07T15:40:25.181Z,101933.50
2023-09-07T15:42:53.033Z,101929.72
2023-09-07T15:45:20.968Z,101927.00
2023-09-07T15:47:49.713Z,101933.31
2023-09-07T15:50:17.724Z,101929.56
2023-09-07T15:52:48.324Z,101921.03
2023-09-07T15:55:17.290Z,101934.09
2023-09-07T15:57:48.635Z,101930.91
2023-09-07T16:00:17.891Z,101930.66
2023-09-07T16:02:46.072Z,101928.44
2023-09-07T16:05:14.145Z,101931.91
2023-09-07T16:07:42.195Z,101935.91
2023-09-07T16:10:11.235Z,101931.31
2023-09-07T16:12:39.198Z,101928.31
2023-09-07T16:15:09.875Z,101925.50
2023-09-07T16:17:38.998Z,101930.38
2023-09-07T16:20:09.709Z,101930.25
2023-09-07T16:22:37.747Z,101927.34
2023-09-07T16:25:06.175Z,101924.00
2023-09-07T16:27:39.297Z,101928.72
2023-09-07T16:30:09.426Z,101924.44
2023-09-07T16:32:38.908Z,101921.13
2023-09-07T16:35:07.577Z,101927.28
2023-09-07T16:37:35.538Z,101923.94
2023-09-07T16:40:03.875Z,101924.13
2023-09-07T16:42:31.798Z,101921.41
2023-09-07T16:44:59.686Z,101924.78
2023-09-07T16:47:29.061Z,101930.13
2023-09-07T16:49:57.076Z,101928.81
2023-09-07T16:52:24.980Z,101924.13
2023-09-07T16:54:52.987Z,101922.50
2023-09-07T16:57:21.282Z,101922.03
2023-09-07T16:59:56.978Z,101926.13
2023-09-07T17:02:26.093Z,101921.28
2023-09-07T17:04:55.564Z,101913.03
2023-09-07T17:07:24.366Z,101919.16
2023-09-07T17:09:52.666Z,101916.19
2023-09-07T17:12:20.593Z,101911.13
2023-09-07T17:14:49.331Z,101912.63
2023-09-07T17:17:17.523Z,101918.50
2023-09-07T17:19:45.570Z,101917.88
2023-09-07T17:22:14.859Z,101923.41
2023-09-07T17:24:42.837Z,101921.47
2023-09-07T17:27:10.825Z,101920.19
2023-09-07T17:29:38.911Z,101912.16
2023-09-07T17:32:07.515Z,101915.97
2023-09-07T17:34:37.025Z,101917.81
2023-09-07T17:37:06.783Z,101915.09
2023-09-07T17:39:37.563Z,101915.31
2023-09-07T17:42:06.256Z,101912.78
2023-09-07T17:44:34.435Z,101915.09
2023-09-07T17:47:02.514Z,101924.00
2023-09-07T17:49:30.434Z,101926.75
2023-09-07T17:51:59.369Z,101935.59
2023-09-07T17:54:27.923Z,101938.97
2023-09-07T17:56:57.332Z,101943.38
2023-09-07T17:59:25.553Z,101946.09
2023-09-07T18:01:56.970Z,101951.34
2023-09-07T18:04:25.635Z,101947.31
2023-09-07T18:06:53.730Z,101946.69
2023-09-07T18:09:21.711Z,101957.06
2023-09-07T18:11:49.780Z,101955.75
2023-09-07T18:14:19.024Z,101952.88
2023-09-07T18:16:47.117Z,101967.06
2023-09-07T18:19:15.058Z,101962.44
2023-09-07T18:21:43.018Z,101964.84
2023-09-07T18:24:11.136Z,101972.81
2023-09-07T18:26:39.086Z,101979.69
2023-09-07T18:29:07.047Z,101979.16
2023-09-07T18:31:36.476Z,101979.38
2023-09-07T18:34:05.562Z,101983.81
2023-09-07T18:36:33.746Z,101986.72
2023-09-07T18:39:01.647Z,101981.84
2023-09-07T18:41:29.810Z,101981.75
2023-09-07T18:43:57.667Z,101982.53
2023-09-07T18:46:25.769Z,101987.00
2023-09-07T18:48:55.126Z,101983.75
2023-09-07T18:51:23.119Z,101983.59
2023-09-07T18:53:51.112Z,101994.63
2023-09-07T18:56:19.057Z,101983.84
2023-09-07T18:58:46.932Z,101990.84
2023-09-07T19:01:16.688Z,101989.09
2023-09-07T19:03:47.473Z,102001.41
2023-09-07T19:06:17.066Z,101990.72
2023-09-07T19:08:45.242Z,101995.78
2023-09-07T19:11:15.881Z,101998.03
2023-09-07T19:13:44.286Z,101992.56
2023-09-07T19:16:15.322Z,101999.03
2023-09-07T19:18:43.583Z,101998.31
2023-09-07T19:21:23.307Z,101993.31
2023-09-07T19:23:54.244Z,101993.78
2023-09-07T19:26:33.287Z,101996.84
2023-09-07T19:29:03.641Z,101996.28
2023-09-07T19:31:31.838Z,101997.19
2023-09-07T19:34:00.309Z,101993.59
2023-09-07T19:36:29.331Z,101998.03
2023-09-07T19:39:01.494Z,101998.63
2023-09-07T19:41:30.348Z,101997.28
2023-09-07T19:43:58.620Z,101996.97
2023-09-07T19:46:26.894Z,101995.22
2023-09-07T19:48:55.272Z,102002.31
2023-09-07T19:51:24.475Z,102002.03
2023-09-07T19:53:52.512Z,101992.28
2023-09-07T19:56:24.917Z,102001.34
2023-09-07T19:58:54.453Z,102002.19
2023-09-07T20:01:23.789Z,101997.38
2023-09-07T20:03:53.775Z,102003.34
2023-09-07T20:06:23.356Z,102000.97
2023-09-07T20:08:52.490Z,102000.78
2023-09-07T20:11:21.768Z,102000.78
2023-09-07T20:13:49.722Z,101995.88
2023-09-07T20:16:17.776Z,102003.81
2023-09-07T20:18:47.165Z,102000.09
2023-09-07T20:21:15.126Z,101990.50
2023-09-07T20:23:43.029Z,101991.06
2023-09-07T20:26:11.022Z,101992.75
2023-09-07T20:28:42.504Z,101994.06
2023-09-07T20:31:11.134Z,101992.00
2023-09-07T20:33:39.655Z,101987.88
2023-09-07T20:36:08.252Z,101997.16
2023-09-07T20:38:37.221Z,101996.13
2023-09-07T20:41:05.663Z,101996.53
2023-09-07T20:43:33.677Z,101989.72
2023-09-07T20:46:05.858Z,101986.97
2023-09-07T20:48:34.661Z,101982.13
2023-09-07T20:51:05.500Z,101984.78
2023-09-07T20:53:33.879Z,101984.09
2023-09-07T20:56:01.747Z,101991.75
2023-09-07T20:58:29.762Z,101990.31
2023-09-07T21:00:57.968Z,101991.16
2023-09-07T21:03:27.484Z,101990.88
2023-09-07T21:05:55.909Z,101989.69
2023-09-07T21:08:23.807Z,101986.78
2023-09-07T21:10:51.818Z,101988.81
2023-09-07T21:13:19.796Z,101992.09
2023-09-07T21:15:47.760Z,101985.38
2023-09-07T21:18:15.853Z,101986.28
2023-09-07T21:20:47.322Z,101982.06
2023-09-07T21:23:15.495Z,101982.59
2023-09-07T21:25:44.726Z,101990.41
2023-09-07T21:28:12.761Z,101982.28
2023-09-07T21:30:40.875Z,101988.28
2023-09-07T21:33:10.426Z,101986.84
2023-09-07T21:35:38.617Z,101992.16
2023-09-07T21:38:08.163Z,101987.94
2023-09-07T21:40:36.543Z,101987.59
2023-09-07T21:43:04.678Z,101991.19
2023-09-07T21:45:32.686Z,101982.31
2023-09-07T21:48:00.702Z,101980.59
2023-09-07T21:50:28.772Z,101980.81
2023-09-07T21:52:56.732Z,101982.88
2023-09-07T21:55:26.138Z,101986.06
2023-09-07T21:57:54.097Z,101979.44
2023-09-07T22:00:22.603Z,101981.00
2023-09-07T22:02:51.101Z,101980.13
2023-09-07T22:05:19.905Z,101981.91
2023-09-07T22:07:47.924Z,101982.59
2023-09-07T22:10:16.053Z,101981.22
2023-09-07T22:12:45.397Z,101980.88
2023-09-07T22:15:13.451Z,101980.94
2023-09-07T22:17:43.907Z,101973.56
2023-09-07T22:20:12.278Z,101975.47
2023-09-07T22:22:40.261Z,101971.69
2023-09-07T22:25:09.232Z,101978.16
2023-09-07T22:27:37.267Z,101971.69
2023-09-07T22:30:08.353Z,101972.16
2023-09-07T22:32:36.547Z,101970.50
2023-09-07T22:35:06.643Z,101970.47
2023-09-07T22:37:34.693Z,101978.44
2023-09-07T22:40:02.708Z,101975.50
2023-09-07T22:42:30.718Z,101979.06
2023-09-07T22:44:58.872Z,101982.31
2023-09-07T22:47:28.167Z,101976.16
2023-09-07T22:49:56.356Z,101978.75
2023-09-07T22:52:24.689Z,101981.47
2023-09-07T22:54:52.778Z,101984.53
2023-09-07T22:57:20.984Z,101983.50
2023-09-07T22:59:49.116Z,101978.44
2023-09-07T23:02:17.113Z,101986.81
2023-09-07T23:04:46.501Z,101981.66
2023-09-07T23:07:14.726Z,101978.44
2023-09-07T23:09:46.365Z,101982.00
2023-09-07T23:12:14.567Z,101972.47
2023-09-07T23:14:43.012Z,101972.97
2023-09-07T23:17:11.100Z,101975.69
2023-09-07T23:19:39.385Z,101973.84
2023-09-07T23:22:08.884Z,101980.66
2023-09-07T23:24:36.899Z,101972.81
2023-09-07T23:27:05.982Z,101977.06
2023-09-07T23:29:34.413Z,101985.78
2023-09-07T23:32:02.864Z,101974.19
2023-09-07T23:34:32.564Z,101980.47
2023-09-07T23:37:00.960Z,101985.59
2023-09-07T23:39:30.534Z,101988.66
2023-09-07T23:41:58.674Z,101978.59
2023-09-07T23:44:26.773Z,101992.06
2023-09-07T23:46:54.775Z,101977.22
2023-09-07T23:49:22.903Z,101978.97
2023-09-07T23:51:50.917Z,101972.13
2023-09-07T23:54:18.974Z,101967.88
2023-09-07T23:56:48.473Z,101962.06
2023-09-07T23:59:16.552Z,101968.38
